Time;durP1;ratioP1;P1;durP2;ratioP2;P2;SDS_P1;SDS_P2;PMS_P1;PMS_P2;Temp;Humidity;BMP_temperature;BMP_pressure;BME280_temperature;BME280_humidity;BME280_pressure;Samples;Min_cycle;Max_cycle;Signal;HPM_P1;HPM_P2
2022/11/23 00:01:58;;;;;;;;;;;;;;;1.59;75.05;96162.44;107938;1262;70907;-73
2022/11/23 00:04:27;;;;;;;3.60;2.70;;;;;;;1.70;74.71;96154.91;108016;1266;68703;-73
2022/11/23 00:06:57;;;;;;;3.80;2.70;;;;;;;1.81;74.83;96158.92;107987;1267;69878;-73
2022/11/23 00:09:27;;;;;;;4.10;2.50;;;;;;;1.90;73.81;96160.48;108036;1266;58900;-74
2022/11/23 00:11:57;;;;;;;2.50;2.30;;;;;;;1.96;73.55;96161.83;108020;1262;59023;-74
2022/11/23 00:14:26;;;;;;;3.80;2.50;;;;;;;2.02;72.71;96161.66;107977;1267;70468;-74
2022/11/23 00:16:55;;;;;;;2.80;2.50;;;;;;;2.07;72.13;96157.43;107980;1266;69797;-74
2022/11/23 00:19:25;;;;;;;3.90;2.40;;;;;;;2.15;70.22;96155.79;107910;1267;69865;-73
2022/11/23 00:21:54;;;;;;;3.60;2.60;;;;;;;2.23;71.82;96151.81;107991;1265;58903;-73
2022/11/23 00:24:23;;;;;;;4.00;2.50;;;;;;;2.31;72.11;96147.39;108004;1267;58925;-73
2022/11/23 00:26:53;;;;;;;3.80;2.50;;;;;;;2.37;71.82;96143.58;108034;1266;69610;-74
2022/11/23 00:29:23;;;;;;;3.50;2.40;;;;;;;2.42;71.73;96140.39;107974;1262;68161;-73
2022/11/23 00:31:52;;;;;;;3.20;2.10;;;;;;;2.46;71.07;96141.17;107966;1267;69154;-74
2022/11/23 00:34:22;;;;;;;3.60;2.20;;;;;;;2.49;70.34;96137.55;107983;1266;58970;-73
2022/11/23 00:36:52;;;;;;;;;;;;;;;2.51;70.09;96120.52;108017;1267;58948;-74
2022/11/23 00:39:21;;;;;;;3.00;2.00;;;;;;;2.53;70.01;96119.71;107968;1267;70710;-74
2022/11/23 00:41:51;;;;;;;2.90;2.20;;;;;;;2.54;69.64;96114.02;107959;1264;67843;-73
2022/11/23 00:44:21;;;;;;;2.60;2.00;;;;;;;2.55;70.02;96116.69;107958;1267;69273;-74
2022/11/23 00:46:51;;;;;;;2.90;2.00;;;;;;;2.56;70.08;96127.65;107953;1266;59246;-74
2022/11/23 00:49:21;;;;;;;2.50;2.00;;;;;;;2.57;70.06;96134.48;108042;1261;58921;-74
2022/11/23 00:51:50;;;;;;;3.00;2.00;;;;;;;2.59;70.33;96131.25;107984;1267;70441;-73
2022/11/23 00:54:21;;;;;;;2.70;1.80;;;;;;;2.63;69.79;96126.88;107826;1266;69235;-73
2022/11/23 00:56:52;;;;;;;8.00;4.80;;;;;;;2.66;69.87;96124.96;107850;1267;69288;-73
2022/11/23 00:59:23;;;;;;;15.60;10.70;;;;;;;2.68;70.46;96133.29;107961;1263;58951;-74
2022/11/23 01:01:54;;;;;;;28.50;18.20;;;;;;;2.62;71.96;96140.84;107862;1267;58884;-74
2022/11/23 01:04:24;;;;;;;16.20;12.30;;;;;;;2.38;73.50;96136.64;108021;1267;70549;-74
2022/11/23 01:06:58;;;;;;;14.70;10.80;;;;;;;2.18;75.31;96131.69;107989;1266;69741;-73
2022/11/23 01:09:28;;;;;;;19.00;12.50;;;;;;;2.05;78.21;96129.89;108031;1263;69176;-74
2022/11/23 01:11:58;;;;;;;;;;;;;;;1.96;80.20;96138.65;108027;1266;58947;-74
2022/11/23 01:14:29;;;;;;;18.10;13.10;;;;;;;1.92;79.19;96148.14;108000;1262;58943;-74
2022/11/23 01:16:59;;;;;;;19.90;13.50;;;;;;;1.89;77.33;96149.75;108021;1267;70548;-74
2022/11/23 01:19:29;;;;;;;11.30;9.00;;;;;;;1.78;77.49;96150.51;108057;1262;69121;-74
2022/11/23 01:22:00;;;;;;;14.30;9.50;;;;;;;1.74;77.86;96145.63;107806;1264;68525;-73
2022/11/23 01:24:30;;;;;;;9.80;6.50;;;;;;;1.75;79.05;96135.02;107902;1263;58925;-73
2022/11/23 01:27:01;;;;;;;7.70;4.90;;;;;;;1.80;79.63;96125.14;107838;1267;59276;-74
2022/11/23 01:29:31;;;;;;;6.70;4.70;;;;;;;1.84;79.70;96126.10;107992;1266;70864;-74
2022/11/23 01:32:03;;;;;;;5.30;4.00;;;;;;;1.89;78.77;96132.84;107900;1266;69242;-73
2022/11/23 01:34:33;;;;;;;5.90;4.30;;;;;;;1.97;78.13;96134.30;107841;1266;68460;-74
2022/11/23 01:37:03;;;;;;;9.70;7.10;;;;;;;2.01;78.35;96128.34;107787;1267;58888;-74
2022/11/23 01:39:34;;;;;;;7.50;5.40;;;;;;;2.04;79.43;96124.77;108033;1265;58938;-74
2022/11/23 01:42:07;;;;;;;;;;;;;;;2.08;78.27;96127.16;108056;1267;70655;-74
2022/11/23 01:44:42;;;;;;;8.90;5.50;;;;;;;2.09;78.42;96121.71;108018;1260;69165;-74
2022/11/23 01:47:13;;;;;;;7.90;5.20;;;;;;;2.12;78.07;96111.95;107814;1265;69169;-73
2022/11/23 01:49:50;;;;;;;6.80;5.10;;;;;;;2.14;77.67;96103.38;107720;1266;59326;-73
2022/11/23 01:52:25;;;;;;;6.40;5.00;;;;;;;2.17;78.13;96101.48;108024;1266;58894;-73
2022/11/23 01:54:58;;;;;;;7.00;5.10;;;;;;;2.20;77.93;96094.08;108030;1263;70531;-73
2022/11/23 01:57:41;;;;;;;7.20;5.60;;;;;;;2.23;77.66;96077.42;107987;1265;69046;-73
2022/11/23 02:00:12;;;;;;;6.20;4.30;;;;;;;2.26;77.78;96069.14;107849;1266;68505;-74
2022/11/23 02:02:57;;;;;;;5.50;3.70;;;;;;;2.30;76.71;96059.24;108147;1267;58953;-72
2022/11/23 02:05:48;;;;;;;5.60;4.90;;;;;;;2.38;76.25;96080.29;107993;1264;58894;-73
2022/11/23 02:08:20;;;;;;;6.20;4.20;;;;;;;2.42;76.46;96088.80;107738;1267;70363;-73
2022/11/23 02:10:50;;;;;;;6.90;4.40;;;;;;;2.45;75.88;96069.52;108084;1266;68188;-74
2022/11/23 02:13:22;;;;;;;6.80;5.00;;;;;;;2.44;76.47;96071.30;107907;1266;68823;-74
2022/11/23 02:15:54;;;;;;;5.50;5.00;;;;;;;2.43;76.96;96074.43;107996;1266;58938;-73
2022/11/23 02:18:30;;;;;;;7.40;4.50;;;;;;;2.42;76.86;96074.66;108010;1266;59007;-74
2022/11/23 02:21:02;;;;;;;5.90;4.90;;;;;;;2.43;76.90;96076.84;107982;1265;70538;-73
2022/11/23 02:23:50;;;;;;;7.80;5.00;;;;;;;2.41;77.58;96078.71;108029;1265;69181;-74
2022/11/23 02:26:27;;;;;;;5.80;4.70;;;;;;;2.41;77.17;96076.29;108028;1262;69244;-73
2022/11/23 02:29:07;;;;;;;6.80;4.70;;;;;;;2.41;77.20;96075.09;108235;1266;58935;-74
2022/11/23 02:31:38;;;;;;;8.90;5.00;;;;;;;2.42;76.89;96075.01;107808;1267;58900;-73
2022/11/23 02:34:09;;;;;;;6.30;4.70;;;;;;;2.43;77.10;96081.48;108026;1266;70627;-73
2022/11/23 02:36:55;;;;;;;5.60;4.10;;;;;;;2.46;77.37;96092.84;107840;1266;69132;-74
2022/11/23 02:39:44;;;;;;;6.50;4.50;;;;;;;2.49;77.67;96096.10;108636;1265;69307;-73
2022/11/23 02:42:15;;;;;;;5.70;4.40;;;;;;;2.52;78.09;96066.33;108299;1262;58989;-74
2022/11/23 02:44:54;;;;;;;6.50;4.70;;;;;;;2.54;77.33;96053.96;107972;1266;58905;-73
2022/11/23 02:47:24;;;;;;;5.20;4.20;;;;;;;2.62;76.47;96059.38;108033;1264;69672;-74
2022/11/23 02:49:54;;;;;;;7.60;4.60;;;;;;;2.67;76.02;96047.70;107993;1264;68297;-74
2022/11/23 02:52:23;;;;;;;6.20;5.10;;;;;;;2.70;75.11;96049.73;108014;1266;69222;-73
2022/11/23 02:54:52;;;;;;;5.40;4.50;;;;;;;2.73;75.94;96054.70;108028;1260;58916;-74
2022/11/23 02:57:22;;;;;;;8.00;5.60;;;;;;;2.75;76.15;96063.88;107758;1266;58953;-74
2022/11/23 02:59:52;;;;;;;9.10;6.50;;;;;;;2.70;78.49;96061.61;107847;1266;70685;-74
2022/11/23 03:02:22;;;;;;;7.00;5.30;;;;;;;2.66;78.15;96056.52;107974;1264;68541;-73
2022/11/23 03:04:52;;;;;;;6.90;6.20;;;;;;;2.63;78.92;96048.12;107832;1262;69118;-74
2022/11/23 03:07:22;;;;;;;6.60;5.30;;;;;;;2.62;79.34;96043.21;107880;1263;59229;-73
2022/11/23 03:09:52;;;;;;;7.60;4.70;;;;;;;2.58;79.30;96041.88;108002;1267;58914;-74
2022/11/23 03:12:21;;;;;;;6.00;4.30;;;;;;;2.57;79.61;96043.52;108006;1263;68655;-74
2022/11/23 03:14:51;;;;;;;5.30;4.60;;;;;;;2.55;79.06;96040.66;107760;1262;69687;-74
2022/11/23 03:17:22;;;;;;;7.50;4.70;;;;;;;2.54;79.10;96039.55;107811;1267;69744;-74
2022/11/23 03:19:51;;;;;;;6.60;4.30;;;;;;;2.54;79.17;96044.88;107683;1266;59763;-74
2022/11/23 03:22:21;;;;;;;5.00;3.80;;;;;;;2.55;80.07;96041.17;107778;1262;59831;-73
2022/11/23 03:24:51;;;;;;;5.80;4.20;;;;;;;2.55;79.38;96036.41;107914;1267;70585;-74
2022/11/23 03:27:20;;;;;;;6.20;4.60;;;;;;;2.54;79.30;96026.98;107992;1266;69179;-73
2022/11/23 03:29:52;;;;;;;6.10;4.50;;;;;;;2.52;79.73;96029.02;108011;1263;68339;-74
2022/11/23 03:32:23;;;;;;;5.60;4.30;;;;;;;2.48;80.16;96029.06;108027;1263;59752;-74
2022/11/23 03:34:54;;;;;;;7.10;5.00;;;;;;;2.46;79.76;96026.77;107981;1263;59664;-74
2022/11/23 03:37:24;;;;;;;6.70;4.40;;;;;;;2.44;79.73;96030.20;107936;1263;70206;-73
2022/11/23 03:39:54;;;;;;;6.70;4.40;;;;;;;2.44;80.01;96041.74;107815;1259;68422;-73
2022/11/23 03:42:42;;;;;;;6.40;4.40;;;;;;;2.43;80.07;96044.70;107962;1262;69895;-73
2022/11/23 03:45:12;;;;;;;4.60;3.80;;;;;;;2.42;79.89;96044.42;107764;1266;59747;-75
2022/11/23 03:47:41;;;;;;;6.30;4.30;;;;;;;2.38;80.40;96039.34;108948;1261;59659;-74
2022/11/23 03:50:10;;;;;;;5.40;4.20;;;;;;;2.35;80.46;96046.20;108378;1260;70501;-74
2022/11/23 03:52:39;;;;;;;8.70;6.90;;;;;;;2.33;80.46;96056.17;108066;1263;69174;-74
2022/11/23 03:55:10;;;;;;;6.10;5.10;;;;;;;2.29;81.15;96052.27;108071;1266;69133;-75
2022/11/23 03:57:39;;;;;;;;;;;;;;;2.26;80.59;96046.75;107860;1266;59753;-74
2022/11/23 04:00:11;;;;;;;6.00;4.50;;;;;;;2.23;80.97;96043.90;107934;1266;59722;-74
2022/11/23 04:02:42;;;;;;;6.20;4.60;;;;;;;2.18;81.18;96039.37;108016;1265;71352;-74
2022/11/23 04:05:31;;;;;;;5.80;4.50;;;;;;;2.13;81.32;96026.61;107971;1263;69214;-74
2022/11/23 04:08:19;;;;;;;5.60;4.60;;;;;;;2.09;81.22;96022.59;107998;1263;69117;-74
2022/11/23 04:10:49;;;;;;;6.10;4.40;;;;;;;2.06;81.43;96024.13;107960;1266;59702;-74
2022/11/23 04:13:26;;;;;;;8.50;4.70;;;;;;;2.06;81.09;96023.08;107949;1266;59697;-74
2022/11/23 04:15:56;;;;;;;7.50;4.80;;;;;;;2.08;81.48;96019.58;107974;1266;71230;-74
2022/11/23 04:18:25;;;;;;;5.50;4.60;;;;;;;2.10;80.88;96026.12;108092;1266;69814;-73
2022/11/23 04:20:55;;;;;;;5.50;4.80;;;;;;;2.12;80.48;96029.27;107701;1266;68929;-74
2022/11/23 04:23:24;;;;;;;6.70;4.40;;;;;;;2.15;80.31;96029.61;107943;1266;59785;-74
2022/11/23 04:25:54;;;;;;;7.50;5.20;;;;;;;2.17;79.99;96027.05;107974;1266;59720;-74
2022/11/23 04:28:24;;;;;;;7.70;5.50;;;;;;;2.21;79.74;96027.34;107762;1262;71658;-74
2022/11/23 04:30:54;;;;;;;10.60;7.50;;;;;;;2.23;79.85;96017.42;108063;1260;69134;-73
2022/11/23 04:33:24;;;;;;;10.60;8.10;;;;;;;2.22;80.77;96015.38;107948;1266;68727;-74
2022/11/23 04:35:58;;;;;;;8.90;6.40;;;;;;;2.22;81.42;96011.45;108837;1262;59755;-76
2022/11/23 04:38:27;;;;;;;10.10;6.40;;;;;;;2.25;80.98;96019.50;107994;1266;59658;-75
2022/11/23 04:40:57;;;;;;;;;;;;;;;2.26;80.74;96011.19;107934;1263;71324;-73
2022/11/23 04:43:28;;;;;;;8.00;5.10;;;;;;;2.25;80.46;96018.10;107927;1263;69062;-72
2022/11/23 04:45:58;;;;;;;5.70;4.70;;;;;;;2.26;80.09;96028.55;107859;1262;68668;-72
2022/11/23 04:48:30;;;;;;;6.70;5.30;;;;;;;2.27;79.94;96029.20;107816;1267;59709;-72
2022/11/23 04:51:00;;;;;;;5.20;4.00;;;;;;;2.27;80.15;96022.45;107949;1262;59735;-73
2022/11/23 04:53:34;;;;;;;6.70;4.60;;;;;;;2.31;79.81;96020.68;108012;1260;71403;-74
2022/11/23 04:56:05;;;;;;;6.30;4.30;;;;;;;2.35;80.61;96016.86;107877;1266;69003;-73
2022/11/23 04:58:37;;;;;;;7.60;5.30;;;;;;;2.39;80.14;96014.36;107867;1263;69354;-72
2022/11/23 05:01:07;;;;;;;7.30;5.00;;;;;;;2.41;79.73;96011.80;107985;1262;59843;-71
2022/11/23 05:03:43;;;;;;;6.90;5.10;;;;;;;2.43;79.36;96010.81;108038;1262;59645;-74
2022/11/23 05:06:13;;;;;;;7.60;5.70;;;;;;;2.44;79.27;96012.13;107981;1262;71974;-72
2022/11/23 05:08:42;;;;;;;8.10;6.20;;;;;;;2.45;79.24;96016.88;107956;1265;69144;-72
2022/11/23 05:11:28;;;;;;;6.70;5.50;;;;;;;2.46;79.29;96008.23;107987;1266;69971;-72
2022/11/23 05:13:58;;;;;;;7.70;5.20;;;;;;;2.46;79.61;96007.02;108008;1266;59677;-72
2022/11/23 05:16:28;;;;;;;12.90;9.80;;;;;;;2.47;79.62;96013.52;108023;1266;59710;-72
2022/11/23 05:18:57;;;;;;;10.90;7.00;;;;;;;2.46;79.72;96015.27;107754;1266;71298;-73
2022/11/23 05:21:27;;;;;;;7.60;6.00;;;;;;;2.46;79.35;96014.57;108001;1266;69247;-73
2022/11/23 05:23:56;;;;;;;9.90;7.20;;;;;;;2.46;79.17;96019.77;107915;1263;69909;-73
2022/11/23 05:26:28;;;;;;;9.60;6.50;;;;;;;2.44;79.86;96025.39;108667;1261;59692;-73
2022/11/23 05:28:57;;;;;;;8.60;7.20;;;;;;;2.45;80.66;96029.62;108015;1262;59685;-73
2022/11/23 05:31:27;;;;;;;9.20;7.20;;;;;;;2.45;81.72;96023.40;108022;1260;71870;-73
2022/11/23 05:33:57;;;;;;;9.00;6.40;;;;;;;2.47;82.20;96021.08;108024;1262;69092;-72
2022/11/23 05:36:34;;;;;;;22.10;12.10;;;;;;;2.50;81.62;96022.23;107989;1265;69561;-72
2022/11/23 05:39:10;;;;;;;18.90;11.70;;;;;;;2.52;81.99;96025.92;107988;1262;59718;-72
2022/11/23 05:41:39;;;;;;;15.80;10.70;;;;;;;2.52;83.30;96036.03;107760;1264;59775;-72
2022/11/23 05:44:20;;;;;;;;;;;;;;;2.54;83.95;96038.66;108018;1263;70834;-72
2022/11/23 05:46:48;;;;;;;11.10;7.10;;;;;;;2.53;85.67;96035.61;108033;1267;69238;-71
2022/11/23 05:49:18;;;;;;;27.80;14.30;;;;;;;2.49;86.84;96035.52;107971;1266;69627;-72
2022/11/23 05:51:48;;;;;;;27.70;14.40;;;;;;;2.47;88.99;96027.59;107987;1260;59730;-72
2022/11/23 05:54:18;;;;;;;13.00;8.40;;;;;;;2.48;89.13;96030.46;108023;1266;59724;-73
2022/11/23 05:56:57;;;;;;;12.20;8.30;;;;;;;2.48;87.39;96028.19;108065;1263;71974;-73
2022/11/23 05:59:36;;;;;;;10.20;7.90;;;;;;;2.50;85.38;96018.65;108790;1257;69495;-74
2022/11/23 06:02:05;;;;;;;10.10;6.80;;;;;;;2.50;85.49;96015.84;108239;1266;68760;-75
2022/11/23 06:04:36;;;;;;;11.90;8.30;;;;;;;2.55;86.23;96021.77;108032;1266;59745;-73
2022/11/23 06:07:07;;;;;;;13.40;9.50;;;;;;;2.59;84.95;96018.59;108056;1266;59785;-72
2022/11/23 06:09:59;;;;;;;13.80;8.60;;;;;;;2.63;84.51;96030.89;107984;1263;72005;-72
2022/11/23 06:12:28;;;;;;;9.80;8.10;;;;;;;2.65;84.02;96038.52;107904;1266;69269;-72
2022/11/23 06:14:58;;;;;;;16.60;12.40;;;;;;;2.66;83.62;96039.83;107766;1266;69172;-72
2022/11/23 06:17:28;;;;;;;28.30;21.90;;;;;;;2.61;88.64;96046.53;107895;1266;59749;-72
2022/11/23 06:20:04;;;;;;;31.40;23.80;;;;;;;2.55;87.99;96051.51;107991;1266;59700;-72
2022/11/23 06:22:34;;;;;;;27.20;20.00;;;;;;;2.44;88.99;96055.30;108020;1262;71348;-73
2022/11/23 06:25:06;;;;;;;28.50;19.30;;;;;;;2.35;89.55;96060.33;107984;1263;69668;-74
2022/11/23 06:27:39;;;;;;;15.50;11.30;;;;;;;2.32;89.30;96059.52;107985;1266;69915;-73
2022/11/23 06:30:17;;;;;;;15.70;11.70;;;;;;;2.32;92.02;96055.55;108092;1266;59744;-73
2022/11/23 06:32:47;;;;;;;14.40;10.90;;;;;;;2.38;93.21;96057.21;107988;1266;59707;-72
2022/11/23 06:35:16;;;;;;;11.80;9.30;;;;;;;2.44;93.34;96057.52;107972;1265;71680;-73
2022/11/23 06:37:48;;;;;;;13.30;9.80;;;;;;;2.50;93.92;96047.85;108074;1266;69288;-72
2022/11/23 06:40:17;;;;;;;11.50;8.90;;;;;;;2.57;94.51;96046.42;107888;1262;69392;-72
2022/11/23 06:42:47;;;;;;;10.90;7.90;;;;;;;2.62;94.30;96050.73;107840;1265;59763;-72
2022/11/23 06:45:20;;;;;;;9.80;8.40;;;;;;;2.67;94.12;96053.69;108079;1266;59656;-72
2022/11/23 06:47:54;;;;;;;11.50;9.80;;;;;;;2.72;93.68;96057.34;107985;1262;70745;-72
2022/11/23 06:50:22;;;;;;;15.40;11.60;;;;;;;2.76;93.69;96064.30;108063;1266;68995;-72
2022/11/23 06:52:56;;;;;;;15.30;11.30;;;;;;;2.82;92.75;96065.50;107955;1260;69952;-72
2022/11/23 06:55:37;;;;;;;11.80;9.00;;;;;;;2.88;92.34;96061.19;108099;1265;59721;-72
2022/11/23 06:58:06;;;;;;;11.50;8.40;;;;;;;2.90;92.75;96061.52;108112;1264;59691;-71
2022/11/23 07:00:35;;;;;;;9.50;7.60;;;;;;;2.97;92.13;96064.88;107929;1262;71427;-71
2022/11/23 07:03:04;;;;;;;15.80;10.10;;;;;;;3.04;92.36;96065.30;107926;1262;69661;-71
2022/11/23 07:05:39;;;;;;;17.20;11.20;;;;;;;3.10;93.72;96063.36;107971;1266;69272;-72
2022/11/23 07:08:09;;;;;;;13.90;9.60;;;;;;;3.12;92.21;96058.40;108009;1265;59654;-72
2022/11/23 07:10:39;;;;;;;12.10;9.40;;;;;;;3.15;90.66;96055.49;108043;1265;59712;-72
2022/11/23 07:13:11;;;;;;;11.50;8.80;;;;;;;3.17;89.89;96057.75;107974;1266;71350;-72
2022/11/23 07:15:41;;;;;;;13.60;10.80;;;;;;;3.20;89.74;96060.14;108050;1264;68948;-71
2022/11/23 07:18:11;;;;;;;12.10;10.20;;;;;;;3.24;89.47;96059.88;107962;1266;68478;-72
2022/11/23 07:20:45;;;;;;;16.10;11.50;;;;;;;3.29;89.06;96051.98;107900;1262;59707;-72
2022/11/23 07:23:14;;;;;;;19.10;15.00;;;;;;;3.34;88.73;96053.05;107999;1265;59758;-73
2022/11/23 07:25:43;;;;;;;19.00;16.30;;;;;;;3.38;88.47;96060.13;107776;1260;70864;-70
2022/11/23 07:28:16;;;;;;;19.10;15.50;;;;;;;3.44;88.05;96058.39;108041;1262;69143;-70
2022/11/23 07:30:45;;;;;;;18.40;13.90;;;;;;;3.47;87.75;96054.70;107962;1260;69404;-70
2022/11/23 07:33:14;;;;;;;23.00;16.50;;;;;;;3.51;86.99;96046.00;107974;1263;59753;-70
2022/11/23 07:35:47;;;;;;;24.60;20.00;;;;;;;3.51;87.01;96044.97;107773;1263;59839;-70
2022/11/23 07:38:16;;;;;;;28.50;23.40;;;;;;;3.48;89.62;96047.25;107997;1262;70389;-72
2022/11/23 07:40:50;;;;;;;28.10;21.20;;;;;;;3.49;89.61;96054.41;108342;1262;69813;-71
2022/11/23 07:43:44;;;;;;;31.40;24.70;;;;;;;3.55;89.44;96059.22;108007;1262;69583;-71
2022/11/23 07:46:14;;;;;;;22.80;17.40;;;;;;;3.62;88.52;96053.91;107917;1263;59769;-71
2022/11/23 07:48:42;;;;;;;20.10;14.10;;;;;;;3.68;87.36;96051.79;107972;1262;59649;-70
2022/11/23 07:51:11;;;;;;;19.30;14.40;;;;;;;3.73;86.54;96054.19;108037;1265;71698;-71
2022/11/23 07:53:41;;;;;;;25.70;17.50;;;;;;;3.77;86.37;96058.92;108013;1262;69348;-71
2022/11/23 07:56:09;;;;;;;20.20;14.20;;;;;;;3.82;86.69;96057.26;108073;1266;69253;-71
2022/11/23 07:58:39;;;;;;;17.20;11.90;;;;;;;3.88;86.66;96059.90;108038;1263;59722;-71
2022/11/23 08:01:08;;;;;;;22.90;15.40;;;;;;;3.96;86.54;96050.45;107999;1262;59687;-67
2022/11/23 08:03:37;;;;;;;20.00;13.20;;;;;;;4.00;86.55;96045.48;108033;1257;70589;-70
2022/11/23 08:06:10;;;;;;;15.80;11.60;;;;;;;4.05;86.68;96041.36;108015;1263;69489;-70
2022/11/23 08:08:39;;;;;;;16.30;11.20;;;;;;;4.13;86.51;96038.25;107983;1263;68654;-71
2022/11/23 08:11:09;;;;;;;18.20;13.00;;;;;;;4.21;86.30;96039.02;108103;1256;59817;-71
2022/11/23 08:13:38;;;;;;;;;;;;;;;4.31;86.15;96036.48;107975;1263;59802;-71
2022/11/23 08:16:07;;;;;;;13.30;11.50;;;;;;;4.40;86.11;96034.31;107968;1265;71907;-70
2022/11/23 08:18:36;;;;;;;14.10;10.30;;;;;;;4.48;85.69;96039.21;108020;1262;69816;-70
2022/11/23 08:21:05;;;;;;;12.70;10.10;;;;;;;4.54;85.30;96032.80;107988;1264;69279;-71
2022/11/23 08:23:34;;;;;;;13.80;10.30;;;;;;;4.57;85.02;96031.17;108044;1262;59772;-70
2022/11/23 08:26:04;;;;;;;14.90;11.60;;;;;;;4.61;85.24;96031.21;107759;1262;358838;-70
2022/11/23 08:28:40;;;;;;;18.30;11.90;;;;;;;4.65;85.47;96030.48;107762;1263;72428;-71
2022/11/23 08:31:11;;;;;;;18.20;13.80;;;;;;;4.67;85.73;96021.17;108020;1264;69700;-70
2022/11/23 08:33:40;;;;;;;16.70;12.90;;;;;;;4.71;86.24;96012.25;108022;1262;69934;-71
2022/11/23 08:36:09;;;;;;;18.20;15.10;;;;;;;4.76;86.77;96003.61;107977;1266;60117;-70
2022/11/23 08:38:38;;;;;;;19.80;16.10;;;;;;;4.80;87.15;95993.95;108044;1262;59671;-71
2022/11/23 08:41:08;;;;;;;20.30;15.80;;;;;;;4.84;86.93;95987.81;108070;1261;70802;-70
2022/11/23 08:43:37;;;;;;;26.20;19.60;;;;;;;4.88;87.21;95983.77;107957;1264;68768;-71
2022/11/23 08:46:06;;;;;;;23.90;18.80;;;;;;;4.92;87.10;95976.89;107969;1266;70305;-71
2022/11/23 08:48:38;;;;;;;19.40;16.40;;;;;;;4.93;87.86;95973.17;108004;1265;60145;-70
2022/11/23 08:51:09;;;;;;;20.80;16.00;;;;;;;4.92;87.92;95961.86;108009;1262;59749;-71
2022/11/23 08:53:38;;;;;;;19.10;14.40;;;;;;;4.90;87.89;95960.81;108004;1262;71863;-71
2022/11/23 08:56:07;;;;;;;19.80;14.80;;;;;;;4.93;88.11;95960.46;107975;1262;69750;-70
2022/11/23 08:58:36;;;;;;;18.50;15.00;;;;;;;4.98;88.33;95962.67;108015;1264;69361;-71
2022/11/23 09:01:13;;;;;;;16.70;13.90;;;;;;;5.03;89.20;95961.22;107976;1262;59728;-70
2022/11/23 09:03:43;;;;;;;14.60;11.40;;;;;;;5.13;88.88;95968.42;108000;1260;59636;-71
2022/11/23 09:06:12;;;;;;;14.50;10.90;;;;;;;5.24;88.76;95977.98;107972;1263;72188;-71
2022/11/23 09:08:41;;;;;;;10.80;8.60;;;;;;;5.37;88.43;95979.98;107976;1262;69267;-71
2022/11/23 09:11:13;;;;;;;11.20;8.10;;;;;;;5.49;87.84;95980.23;107726;1266;69226;-71
2022/11/23 09:13:42;;;;;;;9.00;6.70;;;;;;;5.65;87.79;95984.27;108018;1260;59718;-71
2022/11/23 09:16:10;;;;;;;9.20;6.10;;;;;;;5.80;87.34;95991.25;108041;1266;59826;-71
2022/11/23 09:18:39;;;;;;;14.90;12.10;;;;;;;5.97;86.24;95998.42;107960;1265;70859;-71
2022/11/23 09:21:09;;;;;;;14.50;11.00;;;;;;;6.03;86.95;95990.39;107993;1266;69801;-71
2022/11/23 09:23:38;;;;;;;13.40;9.30;;;;;;;6.07;88.14;95995.63;107976;1263;69725;-71
2022/11/23 09:26:09;;;;;;;27.50;17.90;;;;;;;6.12;88.18;96000.05;108023;1262;59766;-71
2022/11/23 09:28:39;;;;;;;25.40;19.00;;;;;;;5.97;88.47;96005.16;107974;1262;59736;-71
2022/11/23 09:31:12;;;;;;;23.90;17.70;;;;;;;5.98;87.42;96005.63;107968;1262;70730;-71
2022/11/23 09:33:41;;;;;;;19.10;15.00;;;;;;;5.92;87.73;96002.26;108055;1262;69226;-71
2022/11/23 09:36:10;;;;;;;18.40;13.70;;;;;;;5.93;88.16;95993.02;107824;1262;69859;-71
2022/11/23 09:38:39;;;;;;;17.50;14.30;;;;;;;5.97;88.79;95991.23;107837;1266;59766;-71
2022/11/23 09:42:07;;;;;;;17.80;13.60;;;;;;;6.01;88.92;95987.91;108008;1261;59712;-71
2022/11/23 09:44:54;;;;;;;15.60;13.30;;;;;;;6.14;88.20;95987.98;107840;1262;71669;-71
2022/11/23 09:47:29;;;;;;;15.10;11.30;;;;;;;6.28;87.82;95982.02;107783;1266;69896;-71
2022/11/23 09:50:10;;;;;;;14.10;11.40;;;;;;;6.44;87.94;95973.84;107722;1265;68561;-71
2022/11/23 09:52:43;;;;;;;14.90;11.30;;;;;;;6.60;88.65;95972.77;107746;1262;59701;-70
2022/11/23 09:55:54;;;;;;;16.00;11.20;;;;;;;6.78;87.48;95966.48;107780;1262;59658;-70
2022/11/23 09:58:31;;;;;;;15.80;11.10;;;;;;;6.97;87.19;95983.27;107760;1266;71017;-70
2022/11/23 10:01:07;;;;;;;14.70;10.40;;;;;;;7.13;85.66;95982.35;108380;1266;69011;-70
2022/11/23 10:03:38;;;;;;;16.40;12.50;;;;;;;7.18;84.48;95979.16;107759;1262;69678;-70
2022/11/23 10:06:26;;;;;;;18.10;13.20;;;;;;;7.19;84.71;95976.63;107996;1262;59721;-69
2022/11/23 10:09:00;;;;;;;;;;;;;;;7.27;84.40;95980.65;107972;1266;59676;-69
2022/11/23 10:12:09;;;;;;;16.00;12.00;;;;;;;7.36;85.74;95982.23;107879;1266;71997;-71
2022/11/23 10:14:59;;;;;;;16.70;11.30;;;;;;;7.49;85.07;95976.27;108481;1265;69030;-71
2022/11/23 10:17:58;;;;;;;17.40;12.20;;;;;;;7.60;84.90;95964.58;108375;1265;68780;-71
2022/11/23 10:20:46;;;;;;;18.50;13.70;;;;;;;7.70;84.96;95952.53;107928;1262;59763;-71
2022/11/23 10:23:47;;;;;;;17.70;12.80;;;;;;;7.77;85.23;95943.39;107956;1262;59719;-70
2022/11/23 10:26:18;;;;;;;16.20;12.50;;;;;;;7.88;85.40;95949.34;107908;1262;70365;-71
2022/11/23 10:28:49;;;;;;;15.80;12.30;;;;;;;8.02;85.39;95951.14;107665;1263;68622;-71
2022/11/23 10:31:21;;;;;;;18.80;14.20;;;;;;;8.19;85.15;95950.54;107953;1263;69208;-71
2022/11/23 10:34:31;;;;;;;22.80;18.90;;;;;;;8.37;84.36;95950.86;107875;1266;59690;-71
2022/11/23 10:37:01;;;;;;;24.40;18.20;;;;;;;8.61;83.46;95953.89;107660;1269;59720;-70
2022/11/23 10:39:30;;;;;;;25.30;18.50;;;;;;;8.83;82.50;95948.59;107478;1269;71933;-70
2022/11/23 10:42:06;;;;;;;19.00;17.00;;;;;;;8.97;81.68;95957.21;107761;1266;69868;-70
2022/11/23 10:44:37;;;;;;;20.30;14.80;;;;;;;9.11;81.01;95958.05;107934;1266;68439;-70
2022/11/23 10:47:05;;;;;;;15.50;12.70;;;;;;;9.27;81.02;95952.34;107885;1261;59752;-71
2022/11/23 10:49:35;;;;;;;15.30;11.50;;;;;;;9.34;80.73;95946.10;107955;1262;59714;-71
2022/11/23 10:52:30;;;;;;;12.70;11.20;;;;;;;9.47;81.15;95942.27;107829;1266;70622;-70
2022/11/23 10:55:05;;;;;;;11.20;8.60;;;;;;;9.64;80.71;95933.99;108041;1265;69306;-69
2022/11/23 10:57:42;;;;;;;12.30;9.80;;;;;;;9.75;79.64;95932.32;107865;1262;68670;-70
2022/11/23 11:00:12;;;;;;;10.00;7.70;;;;;;;9.83;79.63;95929.38;107958;1262;59745;-70
2022/11/23 11:02:49;;;;;;;8.30;5.90;;;;;;;9.90;78.77;95924.58;107966;1263;59802;-69
2022/11/23 11:05:33;;;;;;;7.10;5.70;;;;;;;9.99;79.34;95929.63;107979;1265;70684;-70
2022/11/23 11:08:28;;;;;;;12.80;9.80;;;;;;;10.02;78.83;95931.29;107708;1267;68493;-70
2022/11/23 11:11:08;;;;;;;9.60;8.40;;;;;;;9.97;78.13;95930.23;107771;1265;68477;-71
2022/11/23 11:13:43;;;;;;;8.80;6.10;;;;;;;9.97;78.83;95927.04;107861;1261;59725;-68
2022/11/23 11:16:24;;;;;;;15.20;11.20;;;;;;;9.96;78.77;95924.15;107884;1262;59691;-68
2022/11/23 11:18:53;;;;;;;15.60;12.70;;;;;;;9.91;78.38;95919.75;107814;1262;71928;-70
2022/11/23 11:21:39;;;;;;;15.30;11.20;;;;;;;9.89;78.03;95917.52;107743;1266;69382;-69
2022/11/23 11:24:18;;;;;;;12.60;9.60;;;;;;;9.87;78.83;95915.81;107691;1262;69256;-68
2022/11/23 11:26:56;;;;;;;10.90;8.20;;;;;;;9.87;78.96;95911.30;107772;1266;59728;-68
2022/11/23 11:29:32;;;;;;;10.90;9.70;;;;;;;9.87;79.16;95906.27;107851;1264;59773;-69
2022/11/23 11:32:16;;;;;;;11.70;8.40;;;;;;;9.83;79.54;95901.45;107783;1263;71368;-69
2022/11/23 11:34:58;;;;;;;14.20;11.40;;;;;;;9.84;80.13;95902.33;107827;1266;68397;-70
2022/11/23 11:37:40;;;;;;;19.10;13.70;;;;;;;9.85;78.99;95899.80;107702;1262;69661;-70
2022/11/23 11:40:34;;;;;;;24.30;16.00;;;;;;;9.80;78.92;95900.51;107729;1263;59717;-70
2022/11/23 11:43:12;;;;;;;27.00;17.50;;;;;;;9.67;78.83;95900.84;107767;1261;59768;-69
2022/11/23 11:45:47;;;;;;;21.40;14.80;;;;;;;9.62;78.75;95901.25;107967;1261;71983;-70
2022/11/23 11:48:50;;;;;;;16.00;11.10;;;;;;;9.53;78.49;95898.10;107788;1266;69114;-70
2022/11/23 11:51:27;;;;;;;13.90;9.90;;;;;;;9.45;78.30;95897.08;107810;1265;69461;-71
2022/11/23 11:54:09;;;;;;;13.00;9.30;;;;;;;9.40;79.15;95896.87;107741;1265;59757;-70
2022/11/23 11:56:43;;;;;;;10.80;7.90;;;;;;;9.36;79.79;95894.33;107649;1266;59694;-70